Terminal Aerodrome Forecast
Issued by NWS North Platte, NE

Home | Current Version | Previous Version | Text Only | Print | Product List | Glossary On
Versions: 1 2 3 4 5 6 7 8 9 10 11 12 13 14
783
FTUS43 KLBF 091739
TAFVTN
TAF
KVTN 091739Z 0918/1018 16010G16KT P6SM BKN050 OVC120
     FM092300 VRB05KT P6SM SCT120
     FM100600 VRB05KT P6SM BKN025
      TEMPO 1006/1008 -SN BKN015
     FM100800 10007KT 5SM -SN OVC015
     FM101400 12010KT P6SM BKN025=

USA.gov is the U.S. government's official web portal to all federal, state and local government web resources and services.